Date,TemperatureHighF,TemperatureAvgF,TemperatureLowF,DewpointHighF,DewpointAvgF,DewpointLowF,HumidityHigh,HumidityAvg,HumidityLow,PressureMaxIn,PressureMinIn,WindSpeedMaxMPH,WindSpeedAvgMPH,GustSpeedMaxMPH,PrecipitationSumIn
2013-7-1,87.8,82.2,75.3,78.9,77.5,73.5,95,86,73,29.89,29.80,5,2,13,2.41
2013-7-2,88.2,83.1,79.9,79.9,78.6,77.3,94,87,74,29.92,29.82,14,2,14,0.01
2013-7-3,87.8,84.1,80.3,79.6,78.7,77.7,92,84,74,29.92,29.85,6,2,6,0.00
2013-7-5,88.6,85.1,82.3,80.8,78.9,77.3,90,82,72,29.94,29.80,10,6,24,0.00
2013-7-6,88.4,85.1,82.8,78.9,77.1,75.2,83,77,70,29.91,29.81,13,9,26,0.00
2013-7-7,88.3,84.8,82.3,77.5,76.3,74.8,81,76,66,29.92,29.84,12,9,28,0.00
2013-7-8,87.7,83.9,82.1,78.1,77.1,76.1,85,80,73,30.00,29.88,10,7,21,0.00
2013-7-9,87.6,84.0,81.6,78.9,77.5,74.7,87,81,74,30.01,29.93,11,6,26,0.00
2013-7-10,85.5,81.6,75.1,78.4,77.1,73.3,96,86,77,30.01,29.88,5,3,16,1.81
2013-7-11,87.8,83.5,80.1,78.8,77.8,75.1,89,83,74,29.96,29.83,16,4,16,0.00
2013-7-12,89.2,84.2,79.9,79.6,77.8,75.5,90,81,71,29.91,29.80,17,3,18,0.22
2013-7-13,86.8,82.5,79.1,79.0,77.5,76.1,93,85,75,29.92,29.83,9,2,9,0.01
2013-7-14,89.8,83.6,77.7,79.7,77.5,75.0,94,82,69,29.91,29.83,22,4,22,0.00
2013-7-15,89.0,85.0,82.8,78.2,77.0,74.8,84,77,65,29.90,29.80,21,8,22,0.00
2013-7-16,83.5,82.8,82.4,77.2,76.7,75.8,83,82,80,29.88,29.85,19,6,20,0.00
2013-7-17,88.8,85.3,82.5,79.8,78.9,77.5,86,81,73,29.94,29.86,11,7,21,0.00
2013-7-18,89.5,85.4,82.0,80.1,78.4,76.9,89,80,70,29.97,29.87,21,7,22,0.00
2013-7-19,89.0,85.0,82.4,79.8,77.7,75.9,87,79,69,29.96,29.86,18,7,19,0.00
2013-7-20,89.0,85.0,82.5,80.4,78.6,76.4,87,82,74,29.94,29.82,26,9,26,0.00
2013-7-21,89.0,85.2,82.9,79.3,77.8,76.1,85,79,71,29.96,29.86,27,10,27,0.00
2013-7-22,88.3,84.4,81.4,79.7,77.4,74.1,86,80,72,30.00,29.90,23,8,23,0.00
2013-7-23,88.0,84.6,82.3,79.3,78.0,75.3,86,81,73,29.97,29.86,23,8,23,0.00
2013-7-24,86.1,83.4,81.9,80.0,78.5,76.7,90,85,77,29.94,29.85,18,5,18,0.00
2013-7-25,83.3,83.0,82.8,79.0,78.7,78.5,87,87,87,29.91,29.90,19,9,19,0.00
2013-7-26,89.2,85.1,82.7,79.8,78.5,77.3,88,81,72,30.02,29.96,10,6,19,0.00
2013-7-27,89.8,84.8,82.4,79.4,78.1,76.2,87,81,67,30.00,29.90,8,5,16,0.00
2013-7-28,89.3,85.7,82.5,79.0,77.4,75.3,84,77,66,29.98,29.88,20,7,20,0.00
2013-7-29,89.0,84.5,81.9,79.3,77.3,74.9,86,79,71,30.04,29.90,20,7,21,0.00
2013-7-30,89.8,85.1,82.0,79.8,77.6,74.8,86,79,67,30.03,29.92,19,6,19,0.00
2013-7-31,86.0,82.2,80.5,78.8,77.4,76.6,89,85,79,30.00,29.93,12,2,12,0.00